createdAt,value
2023-01-19T00:06:41.146Z,98641
2023-01-19T00:16:41.452Z,98631
2023-01-19T00:26:41.942Z,98633
2023-01-19T00:36:42.385Z,98633
2023-01-19T00:46:42.900Z,98633
2023-01-19T00:56:43.388Z,98628
2023-01-19T01:16:44.393Z,98610
2023-01-19T01:26:44.694Z,98595
2023-01-19T01:36:45.134Z,98613
2023-01-19T01:56:45.997Z,98614
2023-01-19T02:06:46.602Z,98634
2023-01-19T02:16:46.884Z,98658
2023-01-19T02:26:47.238Z,98596
2023-01-19T02:36:47.731Z,98656
2023-01-19T02:46:48.098Z,98609
2023-01-19T03:06:48.988Z,98617
2023-01-19T03:16:49.323Z,98624
2023-01-19T03:26:49.696Z,98672
2023-01-19T03:36:50.334Z,98628
2023-01-19T03:46:50.662Z,98572
2023-01-19T03:56:50.945Z,98589
2023-01-19T04:06:51.208Z,98637
2023-01-19T04:16:51.514Z,98608
2023-01-19T04:26:51.884Z,98621
2023-01-19T04:36:52.229Z,98617
2023-01-19T04:46:52.580Z,98618
2023-01-19T04:56:53.186Z,98598
2023-01-19T05:06:53.232Z,98610
2023-01-19T05:16:53.540Z,98651
2023-01-19T05:26:54.052Z,98658
2023-01-19T05:36:54.327Z,98683
2023-01-19T05:46:54.656Z,98673
2023-01-19T05:56:54.867Z,98650
2023-01-19T06:06:55.205Z,98614
2023-01-19T06:16:55.787Z,98636
2023-01-19T06:26:55.882Z,98644
2023-01-19T06:36:56.629Z,98618
2023-01-19T06:47:14.567Z,98647
2023-01-19T06:56:57.147Z,98659
2023-01-19T07:06:57.749Z,98660
2023-01-19T07:16:58.121Z,98638
2023-01-19T07:26:58.924Z,98639
2023-01-19T07:36:58.938Z,98673
2023-01-19T07:46:59.449Z,98667
2023-01-19T07:56:59.860Z,98669
2023-01-19T08:07:00.357Z,98682
2023-01-19T08:17:00.958Z,98680
2023-01-19T08:27:01.075Z,98665
2023-01-19T08:37:01.489Z,98667
2023-01-19T08:47:02.204Z,98678
2023-01-19T08:57:02.297Z,98687
2023-01-19T09:07:02.743Z,98681
2023-01-19T09:17:03.190Z,98671
2023-01-19T09:27:03.659Z,98684
2023-01-19T09:37:04.186Z,98669
2023-01-19T09:47:04.671Z,98679
2023-01-19T09:57:05.182Z,98655
2023-01-19T10:07:05.671Z,98676
2023-01-19T10:17:06.111Z,98685
2023-01-19T10:27:06.618Z,98690
2023-01-19T10:37:07.073Z,98684
2023-01-19T10:47:07.531Z,98698
2023-01-19T10:57:08.167Z,98704
2023-01-19T11:07:08.438Z,98712
2023-01-19T11:17:08.792Z,98712
2023-01-19T11:27:09.252Z,98717
2023-01-19T11:37:09.666Z,98710
2023-01-19T11:47:09.978Z,98724
2023-01-19T11:57:10.373Z,98731
2023-01-19T12:07:10.886Z,98736
2023-01-19T12:17:11.127Z,98757
2023-01-19T12:27:11.519Z,98769
2023-01-19T12:37:13.695Z,98778
2023-01-19T12:47:12.412Z,98783
2023-01-19T12:57:12.999Z,98793
2023-01-19T13:07:13.279Z,98806
2023-01-19T13:17:13.858Z,98827
2023-01-19T13:27:14.473Z,98855
2023-01-19T13:37:14.727Z,98880
2023-01-19T13:47:15.356Z,98897
2023-01-19T13:57:15.535Z,98910
2023-01-19T14:07:16.277Z,98921
2023-01-19T14:17:16.560Z,98932
2023-01-19T14:37:19.110Z,98906
